Time;durP1;ratioP1;P1;durP2;ratioP2;P2;SDS_P1;SDS_P2;PMS_P1;PMS_P2;Temp;Humidity;BMP_temperature;BMP_pressure;BME280_temperature;BME280_humidity;BME280_pressure;Samples;Min_cycle;Max_cycle;Signal;HPM_P1;HPM_P2
2023/06/15 04:01:26;;;;;;;4.43;2.67;;;14.30;99.90;;;;;;5487768;23;21031;-78
2023/06/15 04:03:53;;;;;;;3.03;2.77;;;14.30;99.90;;;;;;4984695;28;20864;-78
2023/06/15 04:06:21;;;;;;;7.97;2.97;;;14.40;99.90;;;;;;4986358;28;20478;-78
2023/06/15 04:08:48;;;;;;;3.93;3.17;;;14.40;99.90;;;;;;4984372;28;20470;-78
2023/06/15 04:11:15;;;;;;;2.90;2.63;;;14.40;99.90;;;;;;4971081;28;20496;-78
2023/06/15 04:13:42;;;;;;;1.77;1.77;;;14.50;99.90;;;;;;4958594;28;20472;-78
2023/06/15 04:16:10;;;;;;;2.10;2.00;;;14.60;99.90;;;;;;4963328;28;20485;-78
2023/06/15 04:18:39;;;;;;;2.23;2.13;;;14.70;99.90;;;;;;4972837;28;20560;-78
2023/06/15 04:21:05;;;;;;;2.00;1.90;;;14.80;99.90;;;;;;4970440;28;20857;-76
2023/06/15 04:23:32;;;;;;;2.77;2.67;;;15.10;99.90;;;;;;4963490;28;20472;-76
2023/06/15 04:26:00;;;;;;;1.80;1.80;;;15.70;99.90;;;;;;4957771;28;20475;-79
2023/06/15 04:28:27;;;;;;;1.80;1.60;;;16.50;99.90;;;;;;4952313;28;20495;-79
2023/06/15 04:31:06;;;;;;;2.37;2.20;;;17.20;99.90;;;;;;4959994;28;20493;-79
2023/06/15 04:33:33;;;;;;;2.40;2.30;;;17.90;99.90;;;;;;4950065;28;20509;-79
2023/06/15 04:36:01;;;;;;;2.03;1.93;;;18.50;99.90;;;;;;4963539;28;20964;-78
2023/06/15 04:38:29;;;;;;;3.90;1.70;;;18.90;99.90;;;;;;4956275;28;20470;-78
2023/06/15 04:40:56;;;;;;;1.80;1.80;;;19.30;99.90;;;;;;4957803;28;20493;-78
2023/06/15 04:43:23;;;;;;;2.03;1.93;;;19.80;99.90;;;;;;4958614;28;20927;-79
2023/06/15 04:45:49;;;;;;;2.00;2.00;;;20.20;99.90;;;;;;4966080;28;20470;-78
2023/06/15 04:48:17;;;;;;;2.87;2.67;;;20.70;99.90;;;;;;4966137;28;20466;-79
2023/06/15 04:50:48;;;;;;;2.87;2.77;;;21.00;99.90;;;;;;4964685;28;20489;-78
2023/06/15 04:53:17;;;;;;;1.87;1.87;;;21.30;99.90;;;;;;4977425;28;20453;-78
2023/06/15 04:55:44;;;;;;;1.63;1.63;;;21.60;99.90;;;;;;4984216;28;20501;-77
2023/06/15 04:58:12;;;;;;;1.30;1.30;;;21.90;99.90;;;;;;4977131;28;20470;-78
2023/06/15 05:00:38;;;;;;;1.53;1.53;;;22.00;99.90;;;;;;4965838;28;20493;-77
2023/06/15 05:03:06;;;;;;;1.80;1.80;;;22.00;99.90;;;;;;4966377;28;20469;-77
2023/06/15 05:05:33;;;;;;;1.27;1.27;;;21.70;99.90;;;;;;4971216;28;20562;-77
2023/06/15 05:07:59;;;;;;;2.30;2.03;;;21.30;99.90;;;;;;4965056;28;20469;-77
2023/06/15 05:10:27;;;;;;;1.30;1.30;;;21.00;99.90;;;;;;4967966;29;20471;-77
2023/06/15 05:12:54;;;;;;;1.73;1.63;;;20.90;99.90;;;;;;4964424;29;20476;-77
2023/06/15 05:15:21;;;;;;;1.50;1.50;;;20.60;99.90;;;;;;4972348;28;20481;-76
2023/06/15 05:17:48;;;;;;;1.50;1.50;;;20.60;99.90;;;;;;4962424;28;20485;-76
2023/06/15 05:20:14;;;;;;;2.20;1.60;;;20.70;99.90;;;;;;4959507;28;20480;-77
2023/06/15 05:22:53;;;;;;;2.20;2.10;;;21.10;99.90;;;;;;4953041;28;20544;-77
2023/06/15 05:25:20;;;;;;;2.03;1.93;;;21.50;99.90;;;;;;4961433;28;20525;-78
2023/06/15 05:27:48;;;;;;;1.70;1.60;;;21.90;99.90;;;;;;4957351;28;20467;-77
2023/06/15 05:30:15;;;;;;;1.30;1.30;;;22.00;99.90;;;;;;4955000;28;20464;-77
2023/06/15 05:32:42;;;;;;;1.27;1.27;;;21.60;99.90;;;;;;4957091;28;20467;-77
2023/06/15 05:35:10;;;;;;;1.27;1.23;;;21.30;99.90;;;;;;4953439;28;20470;-77
2023/06/15 05:37:37;;;;;;;2.07;1.97;;;20.80;99.90;;;;;;4954449;28;20485;-77
2023/06/15 05:40:05;;;;;;;1.63;1.63;;;20.40;99.90;;;;;;4960039;28;20479;-77
2023/06/15 05:42:32;;;;;;;1.63;1.63;;;20.10;99.90;;;;;;4953708;28;20833;-77
2023/06/15 05:45:00;;;;;;;1.57;1.57;;;20.30;99.90;;;;;;4949466;28;20473;-77
2023/06/15 05:47:27;;;;;;;2.20;2.10;;;20.80;99.90;;;;;;4947673;28;20496;-77
2023/06/15 05:49:53;;;;;;;1.37;1.37;;;21.10;99.90;;;;;;4949584;28;20498;-77
2023/06/15 05:52:20;;;;;;;1.57;1.47;;;21.40;99.90;;;;;;4953703;28;20542;-77
2023/06/15 05:54:47;;;;;;;2.50;2.27;;;21.60;99.90;;;;;;4955408;28;20614;-76
2023/06/15 05:57:14;;;;;;;1.63;1.63;;;22.20;99.90;;;;;;4956081;28;20510;-75
2023/06/15 05:59:41;;;;;;;1.13;1.10;;;22.50;99.90;;;;;;4954037;29;20908;-76
2023/06/15 06:02:09;;;;;;;1.60;1.60;;;22.80;99.90;;;;;;4949407;28;20503;-76
2023/06/15 06:04:36;;;;;;;1.33;1.33;;;23.10;99.30;;;;;;4953133;28;20469;-75
2023/06/15 06:07:06;;;;;;;6.70;1.97;;;23.40;97.50;;;;;;4953799;28;20821;-76
2023/06/15 06:09:33;;;;;;;1.50;1.50;;;23.30;97.50;;;;;;4952748;28;20515;-76
2023/06/15 06:12:01;;;;;;;6.53;1.60;;;23.60;97.10;;;;;;4950641;28;20570;-76
2023/06/15 06:14:27;;;;;;;1.40;1.40;;;24.10;96.30;;;;;;4951315;28;20469;-76
2023/06/15 06:16:54;;;;;;;1.20;1.20;;;24.50;95.30;;;;;;4948434;29;20484;-76
2023/06/15 06:19:22;;;;;;;1.20;1.20;;;24.40;93.20;;;;;;4952539;28;20516;-75
2023/06/15 06:21:50;;;;;;;0.67;0.67;;;24.50;93.70;;;;;;4951186;28;20496;-75
2023/06/15 06:24:16;;;;;;;1.27;1.27;;;24.70;93.60;;;;;;4947170;28;20504;-75
2023/06/15 06:26:43;;;;;;;1.10;1.10;;;25.20;93.00;;;;;;4952809;28;20494;-75
2023/06/15 06:29:10;;;;;;;0.97;0.97;;;25.60;91.70;;;;;;4953076;28;20829;-75
2023/06/15 06:31:37;;;;;;;0.97;0.87;;;26.00;90.50;;;;;;4952979;28;20505;-75
2023/06/15 06:34:03;;;;;;;1.30;1.30;;;26.00;88.40;;;;;;4950501;28;20476;-75
2023/06/15 06:36:31;;;;;;;1.00;1.00;;;26.20;87.60;;;;;;4952121;29;20503;-76
2023/06/15 06:38:58;;;;;;;1.63;1.10;;;26.30;84.50;;;;;;4952728;29;20966;-75
2023/06/15 06:41:25;;;;;;;0.80;0.80;;;26.50;84.50;;;;;;4948036;28;20551;-76
2023/06/15 06:43:52;;;;;;;0.97;0.97;;;26.30;83.60;;;;;;4951827;28;20966;-76
2023/06/15 06:46:19;;;;;;;1.90;1.33;;;26.40;84.40;;;;;;4943902;28;20475;-76
2023/06/15 06:48:46;;;;;;;1.83;1.33;;;26.50;84.80;;;;;;4950371;29;20484;-75
2023/06/15 06:51:12;;;;;;;1.20;1.20;;;26.80;83.50;;;;;;4950643;28;20493;-75
2023/06/15 06:53:41;;;;;;;1.33;1.33;;;27.10;79.90;;;;;;4951166;28;20472;-75
2023/06/15 06:56:07;;;;;;;1.67;1.67;;;26.70;80.00;;;;;;4949739;28;20475;-75
2023/06/15 06:58:34;;;;;;;1.30;1.30;;;26.30;82.60;;;;;;4951868;28;20972;-74
2023/06/15 07:01:01;;;;;;;1.37;1.37;;;26.30;82.00;;;;;;4950404;28;20500;-74
2023/06/15 07:03:27;;;;;;;1.37;1.37;;;26.60;82.50;;;;;;4950800;28;20992;-69
2023/06/15 07:05:54;;;;;;;2.00;1.70;;;27.00;82.80;;;;;;4944793;28;20472;-68
2023/06/15 07:08:21;;;;;;;1.37;1.37;;;27.40;79.80;;;;;;4954579;28;20579;-69
2023/06/15 07:10:49;;;;;;;1.50;1.47;;;27.70;79.60;;;;;;4949202;28;20489;-69
2023/06/15 07:13:16;;;;;;;1.80;1.80;;;28.20;79.90;;;;;;4944318;28;20472;-75
2023/06/15 07:15:43;;;;;;;1.13;1.13;;;28.40;78.70;;;;;;4951118;29;20469;-75
2023/06/15 07:18:14;;;;;;;1.43;1.43;;;28.00;78.50;;;;;;4951187;28;20488;-75
2023/06/15 07:20:40;;;;;;;1.30;1.30;;;27.50;79.10;;;;;;4947953;28;20520;-74
2023/06/15 07:23:07;;;;;;;1.20;0.90;;;26.60;82.20;;;;;;4950265;28;20472;-75
2023/06/15 07:25:35;;;;;;;1.00;1.00;;;26.50;80.20;;;;;;4951574;28;20611;-75
2023/06/15 07:28:04;;;;;;;1.27;1.23;;;26.50;80.80;;;;;;4950891;28;20981;-75
2023/06/15 07:30:30;;;;;;;1.07;1.07;;;26.50;81.20;;;;;;4946557;28;20469;-76
2023/06/15 07:32:57;;;;;;;1.33;1.33;;;26.50;80.60;;;;;;4951839;29;20475;-75
2023/06/15 07:35:24;;;;;;;1.57;1.57;;;26.30;81.20;;;;;;4951738;29;20517;-75
2023/06/15 07:37:50;;;;;;;1.50;1.40;;;26.00;81.70;;;;;;4949622;28;21016;-75
2023/06/15 07:40:17;;;;;;;1.80;1.57;;;25.90;83.80;;;;;;4947319;28;20479;-75
2023/06/15 07:42:44;;;;;;;1.60;1.60;;;25.90;83.10;;;;;;4950920;29;20465;-75
2023/06/15 07:45:12;;;;;;;0.90;0.90;;;26.40;82.60;;;;;;4951192;28;20495;-75
2023/06/15 07:47:39;;;;;;;2.63;1.50;;;26.80;82.00;;;;;;4951130;28;20477;-75
2023/06/15 07:50:07;;;;;;;1.10;1.10;;;27.00;81.80;;;;;;4951185;28;20469;-74
2023/06/15 07:52:33;;;;;;;3.60;1.30;;;26.80;80.40;;;;;;4947811;28;20492;-75
2023/06/15 07:55:00;;;;;;;0.83;0.83;;;26.70;81.10;;;;;;4947804;29;21006;-75
2023/06/15 07:57:27;;;;;;;1.40;1.40;;;26.90;81.10;;;;;;4952287;29;20572;-75
2023/06/15 07:59:54;;;;;;;1.47;1.00;;;27.10;79.90;;;;;;4950679;29;20472;-75
2023/06/15 08:02:22;;;;;;;1.63;1.60;;;27.40;79.00;;;;;;4949927;28;20492;-75
2023/06/15 08:04:49;;;;;;;1.10;1.10;;;27.20;77.80;;;;;;4949072;29;20466;-75
2023/06/15 08:07:16;;;;;;;1.30;1.30;;;27.40;77.70;;;;;;4950977;28;20868;-75
2023/06/15 08:09:43;;;;;;;1.20;1.20;;;27.20;75.00;;;;;;4949491;28;20508;-75
2023/06/15 08:12:11;;;;;;;0.90;0.90;;;26.90;77.50;;;;;;4943545;28;20516;-75
2023/06/15 08:14:37;;;;;;;2.30;1.60;;;26.70;76.60;;;;;;4950244;29;21074;-75
2023/06/15 08:17:05;;;;;;;1.03;0.83;;;26.60;75.40;;;;;;4950646;29;20484;-74
2023/06/15 08:19:33;;;;;;;1.57;1.57;;;26.60;78.50;;;;;;4950909;28;20465;-75
2023/06/15 08:22:00;;;;;;;1.37;1.27;;;26.70;76.70;;;;;;4953515;28;20500;-75
2023/06/15 08:24:27;;;;;;;1.20;1.13;;;26.90;75.50;;;;;;4947418;28;20579;-75
2023/06/15 08:26:54;;;;;;;1.50;1.10;;;26.80;75.60;;;;;;4950677;28;20480;-75
2023/06/15 08:29:20;;;;;;;1.73;1.07;;;26.90;76.80;;;;;;4948648;28;20977;-75
2023/06/15 08:31:47;;;;;;;1.13;1.13;;;26.70;77.50;;;;;;4954138;28;20536;-76
2023/06/15 08:34:14;;;;;;;3.23;0.93;;;26.80;75.30;;;;;;4949931;28;20476;-76
2023/06/15 08:36:42;;;;;;;1.33;1.33;;;27.20;76.00;;;;;;4949293;29;20480;-76
2023/06/15 08:39:09;;;;;;;1.00;1.00;;;27.40;75.10;;;;;;4956295;28;20479;-76
2023/06/15 08:41:37;;;;;;;2.00;1.33;;;27.60;73.40;;;;;;4949530;28;20892;-76
2023/06/15 08:44:05;;;;;;;1.20;1.20;;;27.60;73.40;;;;;;4947281;28;21013;-76
2023/06/15 08:46:32;;;;;;;0.90;0.90;;;27.50;72.00;;;;;;4949919;29;20487;-75
2023/06/15 08:49:00;;;;;;;2.03;1.70;;;27.10;72.00;;;;;;4950447;28;20476;-75
2023/06/15 08:51:27;;;;;;;1.40;1.40;;;26.60;73.10;;;;;;4951979;28;20958;-76
2023/06/15 08:53:56;;;;;;;1.50;1.40;;;26.30;74.90;;;;;;4957198;28;20488;-75
2023/06/15 08:56:22;;;;;;;1.83;1.83;;;26.30;74.90;;;;;;4954256;28;21187;-75
2023/06/15 08:58:50;;;;;;;1.10;1.10;;;26.20;72.00;;;;;;4953562;28;20492;-73
2023/06/15 09:01:20;;;;;;;2.10;1.20;;;26.20;72.40;;;;;;4953481;28;20527;-75
2023/06/15 09:03:46;;;;;;;1.00;1.00;;;26.40;72.30;;;;;;4953117;28;20888;-75
2023/06/15 09:06:14;;;;;;;1.20;1.20;;;26.70;71.80;;;;;;4953131;28;20473;-75
2023/06/15 09:08:40;;;;;;;1.10;1.10;;;26.70;69.10;;;;;;4957720;28;20499;-74
2023/06/15 09:11:09;;;;;;;1.03;0.93;;;26.50;67.40;;;;;;4956354;28;20511;-76
2023/06/15 09:13:36;;;;;;;1.27;1.17;;;26.40;67.70;;;;;;4947781;29;20475;-75
2023/06/15 09:16:05;;;;;;;1.30;1.30;;;26.20;67.30;;;;;;4953010;29;20503;-76
2023/06/15 09:18:42;;;;;;;1.23;1.23;;;26.10;67.10;;;;;;4952615;28;20621;-75
2023/06/15 09:21:12;;;;;;;1.50;1.43;;;26.00;66.90;;;;;;4952873;28;20494;-75
2023/06/15 09:23:41;;;;;;;0.87;0.87;;;25.80;65.90;;;;;;4953625;29;20480;-74
2023/06/15 09:26:10;;;;;;;1.27;1.27;;;25.70;66.40;;;;;;4951392;28;20472;-74
2023/06/15 09:28:45;;;;;;;1.30;1.20;;;25.70;66.30;;;;;;4954963;28;20465;-74
2023/06/15 09:31:27;;;;;;;2.10;1.13;;;25.80;67.50;;;;;;4951666;28;20507;-75
2023/06/15 09:34:01;;;;;;;1.47;1.47;;;26.10;67.80;;;;;;4954244;28;20476;-75
2023/06/15 09:36:27;;;;;;;1.80;1.70;;;26.50;68.10;;;;;;4951136;28;20504;-75
2023/06/15 09:38:55;;;;;;;1.20;1.20;;;26.70;66.50;;;;;;4945723;28;20502;-74
2023/06/15 09:41:23;;;;;;;1.10;1.10;;;27.00;65.60;;;;;;4951687;28;21033;-75
2023/06/15 09:43:50;;;;;;;0.90;0.90;;;27.20;63.50;;;;;;4947175;29;20465;-74
2023/06/15 09:46:19;;;;;;;1.00;1.00;;;26.70;62.90;;;;;;4959482;28;20506;-74
2023/06/15 09:48:46;;;;;;;1.20;1.20;;;26.60;63.90;;;;;;4953001;28;20474;-75
2023/06/15 09:51:15;;;;;;;1.87;1.77;;;26.40;62.70;;;;;;4951212;28;20530;-75
2023/06/15 09:53:43;;;;;;;1.50;1.40;;;26.60;63.10;;;;;;4954081;29;20544;-75
2023/06/15 09:56:11;;;;;;;1.53;1.53;;;26.70;62.00;;;;;;4951588;28;20984;-76
2023/06/15 09:58:39;;;;;;;0.87;0.87;;;26.70;63.50;;;;;;4951813;28;20498;-75
2023/06/15 10:01:08;;;;;;;1.50;1.50;;;26.50;62.40;;;;;;4951086;28;22326;-75
2023/06/15 10:03:37;;;;;;;1.30;1.23;;;26.50;61.60;;;;;;4950764;28;20473;-75
2023/06/15 10:06:09;;;;;;;2.10;2.10;;;26.40;62.90;;;;;;4953529;28;20479;-76
2023/06/15 10:08:41;;;;;;;1.50;1.50;;;26.20;62.90;;;;;;4953079;29;20519;-76
2023/06/15 10:11:09;;;;;;;4.20;1.40;;;26.30;62.80;;;;;;4952609;28;20498;-75
2023/06/15 10:13:44;;;;;;;1.40;1.40;;;26.20;62.40;;;;;;4946664;28;20530;-75
2023/06/15 10:16:15;;;;;;;0.93;0.93;;;26.00;61.50;;;;;;4950165;28;20477;-76
2023/06/15 10:18:43;;;;;;;1.30;1.30;;;26.20;63.10;;;;;;4954608;28;20904;-76
2023/06/15 10:21:15;;;;;;;2.20;1.47;;;25.90;61.70;;;;;;4948653;28;20490;-75
2023/06/15 10:23:43;;;;;;;3.17;3.17;;;25.80;62.80;;;;;;4973597;23;20488;-68
2023/06/15 10:26:10;;;;;;;1.47;1.47;;;25.90;63.10;;;;;;4957808;28;20480;-69
2023/06/15 10:28:44;;;;;;;3.53;1.83;;;25.90;62.50;;;;;;4964893;28;20954;-69
2023/06/15 10:31:17;;;;;;;1.53;1.53;;;25.60;61.50;;;;;;4966893;28;20551;-68
2023/06/15 10:33:50;;;;;;;1.40;1.40;;;25.50;61.80;;;;;;4969210;28;20941;-68
2023/06/15 10:36:24;;;;;;;1.50;1.50;;;25.40;62.70;;;;;;4970112;28;20470;-70
2023/06/15 10:38:58;;;;;;;1.23;1.13;;;25.30;61.60;;;;;;4970801;28;20508;-69
2023/06/15 10:41:26;;;;;;;1.40;1.40;;;25.40;62.40;;;;;;4970968;28;20466;-69
2023/06/15 10:44:02;;;;;;;0.97;0.93;;;25.60;61.70;;;;;;4971814;28;20513;-69
2023/06/15 10:46:30;;;;;;;1.90;1.80;;;25.50;61.20;;;;;;4963730;28;20469;-69
2023/06/15 10:49:03;;;;;;;1.57;1.30;;;25.50;61.30;;;;;;4972545;28;20790;-70
2023/06/15 10:51:33;;;;;;;1.13;1.13;;;25.80;61.90;;;;;;4972130;28;20467;-70
2023/06/15 10:54:02;;;;;;;1.50;1.50;;;25.90;60.00;;;;;;4972284;28;20531;-69
2023/06/15 10:56:29;;;;;;;1.40;1.27;;;25.90;59.00;;;;;;4969496;28;20481;-69
2023/06/15 10:58:58;;;;;;;1.50;1.50;;;25.80;59.30;;;;;;4978641;28;20512;-69
2023/06/15 11:01:27;;;;;;;1.33;1.27;;;25.80;59.60;;;;;;4971212;28;20835;-70
2023/06/15 11:03:54;;;;;;;1.60;1.60;;;25.60;60.70;;;;;;4983258;28;20500;-69
2023/06/15 11:06:23;;;;;;;1.10;1.10;;;25.60;61.20;;;;;;4973938;28;21032;-70
2023/06/15 11:08:52;;;;;;;1.60;1.60;;;25.60;60.00;;;;;;4971521;28;20499;-69
2023/06/15 11:11:22;;;;;;;1.47;1.37;;;25.50;59.50;;;;;;4966011;28;21000;-70
2023/06/15 11:13:56;;;;;;;1.40;1.40;;;25.50;60.20;;;;;;4970576;28;21118;-70
2023/06/15 11:16:29;;;;;;;3.33;1.33;;;25.80;62.60;;;;;;4971791;28;20470;-70
2023/06/15 11:19:19;;;;;;;1.60;1.60;;;25.80;61.30;;;;;;4970721;28;20490;-70
2023/06/15 11:21:52;;;;;;;1.70;1.60;;;25.70;62.90;;;;;;4968459;28;20532;-70
2023/06/15 11:24:20;;;;;;;2.13;2.03;;;26.00;63.20;;;;;;4975895;28;20504;-70
2023/06/15 11:26:50;;;;;;;1.13;1.13;;;26.10;62.60;;;;;;4961374;28;20479;-70
2023/06/15 11:29:22;;;;;;;1.10;1.10;;;26.30;62.10;;;;;;4966838;28;20468;-69
2023/06/15 11:31:50;;;;;;;1.40;1.40;;;26.20;61.30;;;;;;4971811;28;20547;-69
2023/06/15 11:34:17;;;;;;;1.70;1.53;;;26.10;62.30;;;;;;4967425;28;20484;-70
2023/06/15 11:36:44;;;;;;;1.43;1.43;;;26.00;66.30;;;;;;4968234;28;20533;-70
2023/06/15 11:39:18;;;;;;;1.33;1.33;;;25.60;66.60;;;;;;4973136;28;20521;-70
2023/06/15 11:41:48;;;;;;;1.67;1.57;;;25.60;69.10;;;;;;4980259;28;21098;-70
2023/06/15 11:44:15;;;;;;;1.73;1.73;;;25.70;68.90;;;;;;4977953;28;20537;-70
2023/06/15 11:46:42;;;;;;;1.00;1.00;;;25.70;67.30;;;;;;4972204;28;20474;-70
2023/06/15 11:49:11;;;;;;;1.40;1.40;;;25.60;64.50;;;;;;4965579;28;20459;-71
2023/06/15 11:51:38;;;;;;;1.50;1.40;;;25.50;63.30;;;;;;4978149;28;20475;-71
2023/06/15 11:54:07;;;;;;;1.13;0.93;;;25.40;60.20;;;;;;4982915;28;20491;-71
2023/06/15 11:56:34;;;;;;;1.80;1.20;;;25.40;59.80;;;;;;4965299;28;20775;-70
2023/06/15 11:59:01;;;;;;;1.43;1.27;;;25.40;60.50;;;;;;4975309;28;20492;-69
2023/06/15 12:01:28;;;;;;;0.90;0.90;;;25.30;61.20;;;;;;4970342;28;20923;-69
2023/06/15 12:03:55;;;;;;;3.73;1.50;;;25.40;61.20;;;;;;4976360;28;20551;-69
2023/06/15 12:06:23;;;;;;;1.97;1.60;;;25.30;61.50;;;;;;4976463;28;20486;-69
2023/06/15 12:08:52;;;;;;;1.50;1.50;;;25.30;61.40;;;;;;4967168;28;20826;-69
2023/06/15 12:11:21;;;;;;;1.57;1.57;;;25.40;62.40;;;;;;4967191;28;20473;-69
2023/06/15 12:13:48;;;;;;;1.20;1.20;;;25.40;62.70;;;;;;4972359;28;20858;-69
2023/06/15 12:16:15;;;;;;;1.27;1.27;;;25.50;61.20;;;;;;4970536;28;20541;-70
2023/06/15 12:18:42;;;;;;;1.50;1.50;;;25.70;61.40;;;;;;4976917;28;20822;-70
2023/06/15 12:21:09;;;;;;;1.50;1.40;;;25.90;61.80;;;;;;4986422;28;20478;-70
2023/06/15 12:23:37;;;;;;;1.23;1.23;;;26.00;61.50;;;;;;4970787;28;20512;-69
2023/06/15 12:26:04;;;;;;;1.30;1.30;;;25.80;61.70;;;;;;4972740;28;20470;-69
2023/06/15 12:28:32;;;;;;;1.40;1.40;;;25.60;62.10;;;;;;4973284;28;20992;-69
2023/06/15 12:31:03;;;;;;;2.30;2.17;;;25.40;63.10;;;;;;4970311;28;20479;-69
2023/06/15 12:33:31;;;;;;;1.90;1.80;;;25.30;63.20;;;;;;4974197;28;20517;-69
2023/06/15 12:35:59;;;;;;;1.63;1.53;;;25.40;63.80;;;;;;4978313;28;20474;-69
2023/06/15 12:38:28;;;;;;;1.23;1.23;;;25.50;63.70;;;;;;4972078;28;20486;-69
2023/06/15 12:40:57;;;;;;;1.40;1.40;;;25.50;64.00;;;;;;4969497;28;20484;-69
2023/06/15 12:43:28;;;;;;;1.93;1.90;;;25.50;65.00;;;;;;4973342;28;20978;-69
2023/06/15 12:45:55;;;;;;;1.83;1.83;;;25.60;65.90;;;;;;4976136;28;20473;-69
2023/06/15 12:48:22;;;;;;;1.63;1.63;;;25.80;66.60;;;;;;4972561;28;20478;-69
2023/06/15 12:50:51;;;;;;;1.23;1.23;;;25.70;67.90;;;;;;4972402;28;20471;-69
2023/06/15 12:53:18;;;;;;;1.80;1.80;;;25.80;69.00;;;;;;4975647;28;20512;-69
2023/06/15 12:55:45;;;;;;;3.40;2.27;;;25.70;69.10;;;;;;4988741;28;20884;-69
2023/06/15 12:58:13;;;;;;;1.43;1.40;;;25.50;69.30;;;;;;4973701;28;20461;-69
2023/06/15 13:00:40;;;;;;;2.07;1.97;;;25.40;69.70;;;;;;4969107;28;20594;-69
2023/06/15 13:03:08;;;;;;;1.30;1.30;;;25.30;69.70;;;;;;4971562;28;20891;-69
2023/06/15 13:05:36;;;;;;;1.50;1.50;;;25.40;69.40;;;;;;4978684;28;20482;-68
2023/06/15 13:08:04;;;;;;;2.10;2.10;;;25.60;69.60;;;;;;4978776;28;20470;-69
2023/06/15 13:10:31;;;;;;;1.67;1.57;;;25.60;70.40;;;;;;4974031;28;20481;-70
2023/06/15 13:12:59;;;;;;;1.83;1.83;;;25.50;70.40;;;;;;4973436;28;20502;-68
2023/06/15 13:15:27;;;;;;;1.80;1.80;;;25.30;70.20;;;;;;4986764;28;20580;-68
2023/06/15 13:17:54;;;;;;;1.47;1.47;;;25.20;71.40;;;;;;4972732;28;20501;-70
2023/06/15 13:20:21;;;;;;;1.83;1.73;;;25.00;71.80;;;;;;4970496;28;21003;-69
2023/06/15 13:22:50;;;;;;;1.50;1.50;;;25.00;72.70;;;;;;4971986;28;20500;-70
2023/06/15 13:25:18;;;;;;;2.97;2.77;;;25.00;73.00;;;;;;4981982;28;20479;-69
2023/06/15 13:27:45;;;;;;;2.27;2.17;;;25.10;73.50;;;;;;4978501;28;20499;-71
2023/06/15 13:30:14;;;;;;;2.03;1.93;;;25.00;73.30;;;;;;4981492;28;20479;-69
2023/06/15 13:32:45;;;;;;;3.37;2.17;;;25.10;74.00;;;;;;4964297;28;20488;-70
2023/06/15 13:35:12;;;;;;;1.80;1.70;;;25.30;73.50;;;;;;4969305;28;20967;-68
2023/06/15 13:37:39;;;;;;;1.57;1.57;;;25.40;73.30;;;;;;4969235;28;20480;-70
2023/06/15 13:40:07;;;;;;;1.80;1.80;;;25.30;72.20;;;;;;4973644;28;20576;-69
2023/06/15 13:42:35;;;;;;;1.47;1.47;;;25.30;72.20;;;;;;4967029;28;20548;-68
2023/06/15 13:45:08;;;;;;;1.80;1.70;;;25.30;71.70;;;;;;4963737;28;20465;-70
2023/06/15 13:47:36;;;;;;;1.90;1.80;;;25.30;71.50;;;;;;4975457;28;20468;-69
2023/06/15 13:50:05;;;;;;;1.83;1.70;;;25.30;71.00;;;;;;4975147;28;20469;-70
2023/06/15 13:52:32;;;;;;;1.60;1.60;;;25.50;71.40;;;;;;4973666;28;20572;-69
2023/06/15 13:54:59;;;;;;;1.40;1.40;;;25.70;71.00;;;;;;4971912;28;20520;-69
2023/06/15 13:57:26;;;;;;;1.83;1.73;;;25.70;69.50;;;;;;4979481;28;20465;-69
2023/06/15 13:59:53;;;;;;;1.73;1.63;;;25.70;70.50;;;;;;4976146;28;20477;-70
2023/06/15 14:02:20;;;;;;;1.93;1.90;;;25.60;68.00;;;;;;4970367;28;20464;-69
2023/06/15 14:04:47;;;;;;;1.20;1.20;;;25.50;67.90;;;;;;4966570;28;20460;-68
2023/06/15 14:07:15;;;;;;;1.70;1.70;;;25.60;68.80;;;;;;4970575;28;20472;-69
2023/06/15 14:09:43;;;;;;;1.70;1.70;;;25.70;69.70;;;;;;4965830;28;20475;-69
2023/06/15 14:12:11;;;;;;;1.67;1.67;;;25.60;67.60;;;;;;4964888;28;20555;-69
2023/06/15 14:14:38;;;;;;;1.60;1.60;;;25.70;67.60;;;;;;4968635;28;20496;-69
2023/06/15 14:17:05;;;;;;;8.13;2.60;;;25.90;66.10;;;;;;4972963;28;20481;-69
2023/06/15 14:19:32;;;;;;;1.43;1.43;;;26.00;65.40;;;;;;4981065;28;20482;-69
2023/06/15 14:21:59;;;;;;;2.37;2.27;;;26.00;65.00;;;;;;4964244;28;20474;-70
2023/06/15 14:24:28;;;;;;;1.93;1.93;;;26.00;66.20;;;;;;4969411;28;21057;-70
2023/06/15 14:26:54;;;;;;;1.93;1.83;;;26.10;66.70;;;;;;4980623;28;20455;-72
2023/06/15 14:29:21;;;;;;;1.80;1.80;;;26.20;66.20;;;;;;4983670;28;20461;-71
2023/06/15 14:31:49;;;;;;;1.70;1.70;;;26.20;65.40;;;;;;4971745;28;20464;-69
2023/06/15 14:34:17;;;;;;;1.90;1.90;;;26.40;65.90;;;;;;4974552;28;20485;-69
2023/06/15 14:36:45;;;;;;;1.60;1.60;;;26.40;65.30;;;;;;4964436;28;20473;-70
2023/06/15 14:39:12;;;;;;;1.70;1.70;;;26.60;66.70;;;;;;4967787;28;20484;-69
2023/06/15 14:41:40;;;;;;;1.77;1.77;;;26.70;65.30;;;;;;4971676;28;20475;-69
2023/06/15 14:44:09;;;;;;;1.83;1.73;;;26.70;65.80;;;;;;4983018;28;20505;-71
2023/06/15 14:46:36;;;;;;;2.37;1.90;;;26.90;65.90;;;;;;4967675;28;20502;-70
2023/06/15 14:49:03;;;;;;;3.37;3.27;;;27.30;66.50;;;;;;4970204;28;20483;-69
2023/06/15 14:51:30;;;;;;;1.90;1.90;;;27.30;68.00;;;;;;4977162;28;20469;-70
2023/06/15 14:53:57;;;;;;;2.17;2.10;;;27.00;68.40;;;;;;4974001;28;20491;-70
2023/06/15 14:56:27;;;;;;;1.70;1.70;;;26.60;70.00;;;;;;4969115;28;20481;-70
2023/06/15 14:58:56;;;;;;;1.60;1.60;;;26.00;70.60;;;;;;4967527;28;20515;-70
2023/06/15 15:01:23;;;;;;;1.90;1.80;;;25.30;75.50;;;;;;4963738;28;20475;-71
2023/06/15 15:03:51;;;;;;;1.17;1.10;;;24.50;91.60;;;;;;4969588;28;20495;-71
2023/06/15 15:06:18;;;;;;;1.23;1.23;;;23.20;94.00;;;;;;4969191;28;20471;-71
2023/06/15 15:08:45;;;;;;;1.50;1.50;;;22.70;99.90;;;;;;4965286;28;20470;-71
2023/06/15 15:11:11;;;;;;;2.20;2.10;;;22.20;99.90;;;;;;4969530;28;20472;-70
2023/06/15 15:13:38;;;;;;;2.77;2.67;;;21.90;99.90;;;;;;4965497;28;20495;-70
2023/06/15 15:16:07;;;;;;;4.23;2.10;;;21.70;99.90;;;;;;4967320;28;20471;-70
2023/06/15 15:18:34;;;;;;;1.87;1.77;;;21.40;99.90;;;;;;4959898;28;20491;-71
2023/06/15 15:21:02;;;;;;;2.47;2.30;;;21.10;99.90;;;;;;4959243;28;20547;-70
2023/06/15 15:23:29;;;;;;;2.03;1.93;;;20.90;99.90;;;;;;4963926;28;20526;-71
2023/06/15 15:25:56;;;;;;;1.43;1.43;;;20.90;99.90;;;;;;4962491;28;20976;-70
2023/06/15 15:28:23;;;;;;;2.53;2.43;;;20.90;99.90;;;;;;4965198;28;20467;-70
2023/06/15 15:30:50;;;;;;;1.70;1.70;;;20.90;99.90;;;;;;4965649;28;20467;-71
2023/06/15 15:33:18;;;;;;;1.50;1.50;;;20.90;99.90;;;;;;4979725;28;20841;-70
2023/06/15 15:35:45;;;;;;;3.90;2.40;;;21.00;99.90;;;;;;4974651;28;20505;-70
2023/06/15 15:38:12;;;;;;;2.33;2.23;;;21.10;99.90;;;;;;4964719;28;20468;-69
2023/06/15 15:40:39;;;;;;;1.80;1.80;;;21.20;99.90;;;;;;4969201;28;20484;-69
2023/06/15 15:43:06;;;;;;;2.17;2.07;;;21.30;99.90;;;;;;4984264;28;20487;-70
2023/06/15 15:45:33;;;;;;;1.70;1.67;;;21.30;99.90;;;;;;4965285;28;20480;-70
2023/06/15 15:48:00;;;;;;;2.30;2.20;;;21.30;99.90;;;;;;4960242;28;20479;-70
2023/06/15 15:50:28;;;;;;;3.43;2.90;;;21.30;99.90;;;;;;4960488;28;20494;-70
2023/06/15 15:52:55;;;;;;;2.23;2.03;;;21.10;99.90;;;;;;4967408;28;20496;-70
2023/06/15 15:55:22;;;;;;;2.57;2.47;;;20.60;99.90;;;;;;4964164;28;20555;-70
2023/06/15 15:57:49;;;;;;;6.23;2.20;;;20.30;99.90;;;;;;4958945;28;20931;-70
2023/06/15 16:00:16;;;;;;;3.20;2.90;;;19.90;99.90;;;;;;4959837;28;20495;-70
2023/06/15 16:02:43;;;;;;;2.10;2.00;;;19.60;99.90;;;;;;4961170;28;20487;-70
2023/06/15 16:05:10;;;;;;;2.70;2.60;;;19.50;99.90;;;;;;4980353;28;20472;-70
2023/06/15 16:07:40;;;;;;;2.50;2.20;;;19.40;99.90;;;;;;4983800;28;20459;-72
2023/06/15 16:10:08;;;;;;;2.93;2.73;;;19.40;99.90;;;;;;4974008;28;20550;-72
2023/06/15 16:12:35;;;;;;;2.30;2.20;;;19.40;99.90;;;;;;4967761;28;20628;-71
2023/06/15 16:15:02;;;;;;;8.90;2.50;;;19.50;99.90;;;;;;4972431;28;20478;-71
2023/06/15 16:17:29;;;;;;;2.47;2.37;;;19.50;99.90;;;;;;4976146;28;20603;-71
2023/06/15 16:19:55;;;;;;;2.47;2.37;;;19.50;99.90;;;;;;4970075;28;20483;-71
2023/06/15 16:22:24;;;;;;;2.67;2.57;;;19.60;99.90;;;;;;4970269;28;20480;-71
2023/06/15 16:24:52;;;;;;;3.10;3.00;;;19.70;99.90;;;;;;4969306;28;20479;-71
2023/06/15 16:27:19;;;;;;;3.40;3.20;;;19.80;99.90;;;;;;4961011;28;20472;-71
2023/06/15 16:29:46;;;;;;;3.67;3.37;;;20.10;99.90;;;;;;4981229;28;20559;-71
2023/06/15 16:32:13;;;;;;;2.87;2.67;;;20.30;99.90;;;;;;4981271;28;20499;-71
2023/06/15 16:34:41;;;;;;;3.43;3.23;;;20.50;99.90;;;;;;4973560;28;20466;-71
2023/06/15 16:37:07;;;;;;;2.17;2.07;;;20.60;99.90;;;;;;4971395;28;20468;-70
2023/06/15 16:39:46;;;;;;;2.43;2.33;;;20.60;99.90;;;;;;4980737;28;20487;-71
2023/06/15 16:42:16;;;;;;;3.07;2.97;;;20.60;99.90;;;;;;4974620;28;20551;-71
2023/06/15 16:44:43;;;;;;;3.07;2.97;;;20.60;99.90;;;;;;4968465;28;20699;-70
2023/06/15 16:47:10;;;;;;;2.87;2.87;;;20.60;99.90;;;;;;4973729;28;20471;-70
2023/06/15 16:49:38;;;;;;;5.90;3.10;;;20.50;99.90;;;;;;4978288;28;20486;-71
2023/06/15 16:52:07;;;;;;;6.43;2.73;;;20.50;99.90;;;;;;4973274;28;21153;-70